Time;durP1;ratioP1;P1;durP2;ratioP2;P2;SDS_P1;SDS_P2;PMS_P1;PMS_P2;Temp;Humidity;BMP_temperature;BMP_pressure;BME280_temperature;BME280_humidity;BME280_pressure;Samples;Min_cycle;Max_cycle;Signal;HPM_P1;HPM_P2
2022/01/20 00:00:19;;;;;;;15.63;2.67;;;3.80;99.90;;;;;;5050226;28;20479;-81
2022/01/20 00:02:56;;;;;;;11.32;1.67;;;3.80;99.90;;;;;;5049121;28;20052;-80
2022/01/20 00:08:27;;;;;;;22.23;2.78;;;3.80;99.90;;;;;;5007609;28;20151;-80
2022/01/20 00:27:19;;;;;;;18.13;2.00;;;3.70;99.90;;;;;;5011640;28;20756;-82
2022/01/20 00:32:14;;;;;;;18.90;2.05;;;3.60;99.90;;;;;;5011378;28;20265;-79
2022/01/20 00:37:26;;;;;;;19.98;2.08;;;3.60;99.90;;;;;;5011726;28;20518;-79
2022/01/20 00:39:53;;;;;;;17.25;2.03;;;3.60;99.90;;;;;;5011604;28;20065;-80
2022/01/20 00:42:20;;;;;;;12.50;1.83;;;3.60;99.90;;;;;;5011442;28;20085;-79
2022/01/20 00:44:49;;;;;;;17.17;2.33;;;3.60;99.90;;;;;;5008907;28;20057;-80
2022/01/20 00:47:17;;;;;;;21.88;2.80;;;3.90;99.90;;;;;;5053700;28;20562;-79
2022/01/20 00:49:43;;;;;;;17.08;2.05;;;3.60;99.90;;;;;;5052041;28;20179;-80
2022/01/20 00:52:09;;;;;;;14.20;2.03;;;3.90;99.90;;;;;;5050618;28;20068;-80
2022/01/20 00:54:36;;;;;;;19.45;2.47;;;3.90;99.90;;;;;;5053608;28;20048;-80
2022/01/20 00:57:03;;;;;;;20.23;2.47;;;3.70;99.90;;;;;;5053465;28;20040;-79
2022/01/20 00:59:31;;;;;;;18.85;1.98;;;3.70;99.90;;;;;;5053199;28;20053;-83
2022/01/20 01:01:59;;;;;;;13.35;2.35;;;3.70;99.90;;;;;;5053520;28;20116;-80
2022/01/20 01:04:26;;;;;;;12.25;2.03;;;3.60;99.90;;;;;;5053185;28;20053;-80
2022/01/20 01:07:11;;;;;;;17.52;1.92;;;3.60;99.90;;;;;;5052174;28;20052;-78
2022/01/20 01:09:39;;;;;;;16.02;1.70;;;3.60;99.90;;;;;;5053630;28;20049;-83
2022/01/20 01:12:08;;;;;;;17.25;2.80;;;3.60;99.90;;;;;;5053046;28;20120;-79
2022/01/20 01:14:35;;;;;;;17.00;2.33;;;3.70;99.90;;;;;;5053359;28;20037;-80
2022/01/20 01:24:45;;;;;;;5.88;1.33;;;3.70;99.90;;;;;;5053132;28;20060;-84
2022/01/20 01:27:12;;;;;;;5.70;0.70;;;3.70;99.90;;;;;;5053709;28;20041;-82
2022/01/20 01:32:10;;;;;;;7.85;0.77;;;3.60;99.90;;;;;;5053473;28;20397;-84
2022/01/20 01:34:39;;;;;;;5.32;0.63;;;3.60;99.90;;;;;;5052905;28;20495;-82
2022/01/20 01:37:14;;;;;;;4.93;0.70;;;3.50;99.90;;;;;;5052279;28;20110;-81
2022/01/20 01:39:39;;;;;;;9.10;0.88;;;3.50;99.90;;;;;;5053445;28;20045;-82
2022/01/20 01:42:08;;;;;;;7.47;0.90;;;3.40;99.90;;;;;;5052939;28;20045;-82
2022/01/20 01:44:33;;;;;;;11.18;1.27;;;3.40;99.90;;;;;;5052840;28;20064;-82
2022/01/20 01:46:59;;;;;;;11.63;1.10;;;3.40;99.90;;;;;;5053118;28;20044;-82
2022/01/20 01:49:25;;;;;;;18.20;1.50;;;4.30;99.90;;;;;;5052988;28;20044;-81
2022/01/20 01:51:51;;;;;;;11.88;2.05;;;3.40;99.90;;;;;;5052739;28;20476;-82
2022/01/20 01:54:18;;;;;;;14.23;1.27;;;3.40;99.90;;;;;;5052791;28;20076;-82
2022/01/20 01:56:48;;;;;;;18.17;1.83;;;3.30;99.90;;;;;;5052429;28;20068;-85
2022/01/20 01:59:14;;;;;;;12.88;1.75;;;3.40;99.90;;;;;;5052777;28;20408;-82
2022/01/20 02:01:42;;;;;;;15.07;1.85;;;4.00;99.90;;;;;;5035004;28;20131;-83
2022/01/20 02:04:18;;;;;;;22.38;2.13;;;3.40;99.90;;;;;;5052569;28;20041;-82
2022/01/20 02:18:13;;;;;;;15.15;1.85;;;3.50;99.90;;;;;;5052645;28;20049;-81
2022/01/20 02:20:39;;;;;;;13.35;1.52;;;3.50;99.90;;;;;;5017909;28;20055;-81
2022/01/20 02:23:05;;;;;;;15.75;2.08;;;4.10;99.90;;;;;;5051754;28;20098;-82
2022/01/20 02:25:33;;;;;;;11.43;1.42;;;3.50;99.90;;;;;;5052215;28;20098;-82
2022/01/20 02:28:04;;;;;;;12.10;1.17;;;3.60;99.90;;;;;;5052123;28;20053;-82
2022/01/20 02:30:30;;;;;;;11.00;1.50;;;3.60;99.90;;;;;;5052428;28;20148;-82
2022/01/20 02:32:59;;;;;;;16.27;2.38;;;3.60;99.90;;;;;;5052628;28;20045;-84
2022/01/20 02:35:29;;;;;;;22.20;2.38;;;3.50;99.90;;;;;;5052354;28;20496;-84
2022/01/20 02:38:11;;;;;;;11.00;2.03;;;3.50;99.90;;;;;;5052038;28;20051;-83
2022/01/20 02:45:51;;;;;;;17.65;2.30;;;3.40;99.90;;;;;;5052143;28;20061;-83
2022/01/20 02:48:17;;;;;;;14.52;2.85;;;3.40;99.90;;;;;;5051473;28;20043;-82
2022/01/20 02:50:43;;;;;;;18.90;2.75;;;3.40;99.90;;;;;;5050955;28;20399;-85
2022/01/20 02:53:08;;;;;;;13.63;2.35;;;3.40;99.90;;;;;;5052058;28;20053;-83
2022/01/20 02:55:35;;;;;;;23.27;2.45;;;3.40;99.90;;;;;;5051517;28;20049;-81
2022/01/20 02:58:01;;;;;;;19.42;3.22;;;3.40;99.90;;;;;;5051859;28;20051;-81
2022/01/20 03:00:27;;;;;;;31.77;4.53;;;3.40;99.90;;;;;;5049985;28;20052;-81
2022/01/20 03:02:52;;;;;;;31.90;3.30;;;3.40;99.90;;;;;;5050763;28;20098;-81
2022/01/20 03:05:18;;;;;;;34.38;4.85;;;3.50;99.90;;;;;;5051325;28;20053;-81
2022/01/20 03:07:45;;;;;;;26.42;5.22;;;3.50;99.90;;;;;;5051617;28;20118;-81
2022/01/20 03:10:11;;;;;;;28.65;4.03;;;3.50;99.90;;;;;;5051019;28;20049;-83
2022/01/20 03:12:37;;;;;;;18.33;3.65;;;3.50;99.90;;;;;;5051694;28;20091;-82
2022/01/20 03:15:03;;;;;;;17.85;3.40;;;3.50;99.90;;;;;;5051256;28;20069;-82
2022/01/20 03:17:30;;;;;;;26.17;2.88;;;3.50;99.90;;;;;;5019010;28;20159;-81
2022/01/20 03:19:58;;;;;;;23.52;3.42;;;3.50;99.90;;;;;;5050909;28;20080;-80
2022/01/20 03:22:24;;;;;;;31.25;4.05;;;3.50;99.90;;;;;;5051284;28;20044;-82
2022/01/20 03:24:50;;;;;;;17.83;2.90;;;3.40;99.90;;;;;;5050250;28;20214;-81
2022/01/20 03:27:17;;;;;;;23.63;3.22;;;3.40;99.90;;;;;;5051106;28;20045;-83
2022/01/20 03:29:43;;;;;;;33.30;3.95;;;3.40;99.90;;;;;;5051194;28;20044;-81
2022/01/20 03:32:09;;;;;;;20.42;3.22;;;3.40;99.90;;;;;;5040823;28;20132;-82
2022/01/20 03:34:35;;;;;;;17.50;3.00;;;4.30;99.90;;;;;;5050295;28;20049;-82
2022/01/20 03:37:03;;;;;;;16.45;2.47;;;3.40;99.90;;;;;;5050669;28;20041;-81
2022/01/20 03:39:30;;;;;;;19.25;2.83;;;3.80;99.90;;;;;;5051005;28;20059;-83
2022/01/20 03:41:56;;;;;;;25.02;2.45;;;3.40;99.90;;;;;;5050310;28;20045;-83
2022/01/20 03:44:22;;;;;;;18.63;2.65;;;3.40;99.90;;;;;;5050737;28;20057;-81
2022/01/20 03:46:47;;;;;;;11.30;1.67;;;3.30;99.90;;;;;;5050992;28;20627;-81
2022/01/20 03:49:27;;;;;;;18.50;2.53;;;3.30;99.90;;;;;;5043401;28;20060;-84
2022/01/20 03:51:54;;;;;;;11.93;2.33;;;3.30;99.90;;;;;;5050519;28;20116;-84
2022/01/20 03:54:20;;;;;;;14.15;2.42;;;3.40;99.90;;;;;;5050511;28;20891;-81
2022/01/20 03:56:46;;;;;;;18.13;2.88;;;3.60;99.90;;;;;;5050546;28;20045;-82
2022/01/20 03:59:11;;;;;;;9.18;2.15;;;3.80;99.90;;;;;;5051109;28;20051;-83
2022/01/20 04:01:37;;;;;;;16.98;2.45;;;3.70;99.90;;;;;;5021156;28;20482;-81
2022/01/20 04:04:03;;;;;;;19.13;2.75;;;3.30;99.90;;;;;;5050261;28;20099;-82
2022/01/20 04:06:29;;;;;;;17.92;2.38;;;3.30;99.90;;;;;;5050469;28;20045;-82
2022/01/20 04:08:55;;;;;;;13.57;1.92;;;3.20;99.90;;;;;;5050585;28;20126;-80
2022/01/20 04:11:23;;;;;;;23.73;2.60;;;3.20;99.90;;;;;;5049196;28;20052;-82
2022/01/20 04:13:50;;;;;;;22.80;2.65;;;3.20;99.90;;;;;;5049714;28;20049;-81
2022/01/20 04:16:51;;;;;;;13.77;2.28;;;3.20;99.90;;;;;;5050099;28;20045;-84
2022/01/20 04:19:18;;;;;;;21.25;2.10;;;3.10;99.90;;;;;;5049582;28;20047;-81
2022/01/20 04:21:43;;;;;;;17.50;2.00;;;3.10;99.90;;;;;;5041681;28;20059;-82
2022/01/20 04:24:13;;;;;;;18.55;2.28;;;3.10;99.90;;;;;;5049719;28;20041;-81
2022/01/20 04:26:41;;;;;;;20.40;2.10;;;3.10;99.90;;;;;;5031987;28;20392;-81
2022/01/20 04:29:07;;;;;;;20.17;2.15;;;3.10;99.90;;;;;;5049627;28;20048;-79
2022/01/20 04:31:35;;;;;;;15.25;2.70;;;3.10;99.90;;;;;;5049942;28;20063;-79
2022/01/20 04:34:01;;;;;;;12.02;2.40;;;3.10;99.90;;;;;;5049499;28;20090;-79
2022/01/20 04:36:33;;;;;;;13.23;2.42;;;3.00;99.90;;;;;;5050182;28;20045;-80
2022/01/20 04:39:00;;;;;;;17.48;2.00;;;3.00;99.90;;;;;;5050107;28;20045;-81
2022/01/20 04:41:29;;;;;;;22.77;2.75;;;3.00;99.90;;;;;;5038132;28;20061;-80
2022/01/20 04:43:56;;;;;;;21.77;2.55;;;2.90;99.90;;;;;;5049381;28;20041;-80
2022/01/20 04:49:04;;;;;;;17.88;2.72;;;2.90;99.90;;;;;;5031531;28;20147;-80
2022/01/20 04:59:36;;;;;;;23.75;2.80;;;3.00;99.90;;;;;;5049194;28;20139;-80
2022/01/20 05:02:02;;;;;;;23.15;2.65;;;3.00;99.90;;;;;;5049575;28;20174;-80
2022/01/20 05:04:28;;;;;;;24.60;2.63;;;3.00;99.90;;;;;;5049621;28;20047;-80
2022/01/20 05:06:58;;;;;;;15.85;2.50;;;3.00;99.90;;;;;;5049388;28;20049;-82
2022/01/20 05:09:24;;;;;;;13.38;1.95;;;3.00;99.90;;;;;;5014987;28;20045;-80
2022/01/20 05:11:58;;;;;;;10.98;1.27;;;2.90;99.90;;;;;;5014671;28;20056;-81
2022/01/20 05:14:26;;;;;;;12.45;1.63;;;2.80;99.90;;;;;;5053172;28;20059;-79
2022/01/20 05:16:53;;;;;;;10.38;1.40;;;2.70;99.90;;;;;;5052394;28;20483;-81
2022/01/20 05:19:19;;;;;;;13.10;1.67;;;2.60;99.90;;;;;;5052983;28;20051;-79
2022/01/20 05:21:45;;;;;;;9.75;1.63;;;2.50;99.90;;;;;;5035224;28;20099;-79
2022/01/20 05:24:11;;;;;;;7.45;1.20;;;2.40;99.90;;;;;;5053036;28;20053;-80
2022/01/20 05:26:36;;;;;;;16.02;1.02;;;2.40;99.90;;;;;;5052897;28;20041;-80
2022/01/20 05:29:02;;;;;;;10.77;1.10;;;2.30;99.90;;;;;;5053118;28;20045;-80
2022/01/20 05:31:30;;;;;;;8.40;1.70;;;2.30;99.90;;;;;;5052907;28;20056;-82
2022/01/20 05:33:56;;;;;;;9.75;1.80;;;2.20;99.90;;;;;;5052700;28;20055;-80
2022/01/20 05:36:22;;;;;;;10.15;1.50;;;2.20;99.90;;;;;;5052862;28;20399;-81
2022/01/20 05:38:47;;;;;;;15.77;2.70;;;2.20;99.90;;;;;;5052375;28;20045;-81
2022/01/20 05:41:13;;;;;;;19.33;2.45;;;2.20;99.90;;;;;;5052704;28;20109;-82
2022/01/20 05:43:39;;;;;;;16.50;2.08;;;2.70;99.90;;;;;;5018006;28;20115;-80
2022/01/20 05:46:05;;;;;;;13.88;1.92;;;2.10;99.90;;;;;;5034632;28;20057;-81
2022/01/20 05:48:35;;;;;;;12.27;1.80;;;2.10;99.90;;;;;;5018672;28;20055;-82
2022/01/20 05:51:05;;;;;;;15.98;1.80;;;2.30;99.90;;;;;;5018926;28;20047;-82
2022/01/20 05:53:33;;;;;;;11.55;2.03;;;2.00;99.90;;;;;;5018735;28;20083;-82
2022/01/20 05:55:59;;;;;;;18.02;2.25;;;2.00;99.90;;;;;;5019169;28;20048;-82
2022/01/20 05:58:25;;;;;;;16.88;2.30;;;2.00;99.90;;;;;;5053774;28;20045;-81
2022/01/20 06:00:50;;;;;;;17.73;2.42;;;2.10;99.90;;;;;;5052574;28;20049;-83
2022/01/20 06:06:02;;;;;;;18.05;2.17;;;2.20;99.90;;;;;;5052684;28;20137;-81
2022/01/20 06:08:27;;;;;;;12.10;2.50;;;2.20;99.90;;;;;;5052720;28;20384;-81
2022/01/20 06:10:53;;;;;;;17.85;2.17;;;2.30;99.90;;;;;;5052291;28;20067;-83
2022/01/20 06:13:19;;;;;;;13.00;2.33;;;2.30;99.90;;;;;;5052294;28;20094;-80
2022/01/20 06:15:45;;;;;;;13.48;2.40;;;2.30;99.90;;;;;;5052250;28;20048;-81
2022/01/20 06:18:11;;;;;;;15.35;2.35;;;2.70;99.90;;;;;;5051824;28;20484;-81
2022/01/20 06:20:38;;;;;;;13.70;2.75;;;2.00;99.90;;;;;;5052066;28;20526;-83
2022/01/20 06:23:08;;;;;;;11.20;1.65;;;2.30;99.90;;;;;;5050986;28;20041;-83
2022/01/20 06:25:34;;;;;;;15.80;2.45;;;2.30;99.90;;;;;;5034177;28;20491;-81
2022/01/20 06:28:01;;;;;;;16.02;2.78;;;2.50;99.90;;;;;;5033619;28;20033;-82
2022/01/20 06:30:27;;;;;;;16.48;2.42;;;2.30;99.90;;;;;;5034066;28;20091;-80
2022/01/20 06:32:53;;;;;;;12.25;2.47;;;2.30;99.90;;;;;;5051507;28;20048;-81
2022/01/20 06:35:19;;;;;;;11.45;1.85;;;2.30;99.90;;;;;;5051405;28;20094;-80
2022/01/20 06:37:45;;;;;;;11.32;2.35;;;2.30;99.90;;;;;;5051851;28;20570;-80
2022/01/20 06:40:11;;;;;;;14.13;1.83;;;2.30;99.90;;;;;;5033993;28;20053;-84
2022/01/20 06:42:37;;;;;;;11.15;2.25;;;2.30;99.90;;;;;;5051645;28;20526;-81
2022/01/20 06:45:06;;;;;;;9.10;1.77;;;2.40;99.90;;;;;;5050602;28;20057;-83
2022/01/20 06:47:31;;;;;;;15.85;2.22;;;2.30;99.90;;;;;;5051245;28;20052;-80
2022/01/20 06:49:57;;;;;;;13.85;2.60;;;2.30;99.90;;;;;;5016245;28;20061;-80
2022/01/20 06:52:23;;;;;;;10.38;1.77;;;2.30;99.90;;;;;;5051391;28;20044;-82
2022/01/20 06:54:48;;;;;;;21.25;2.28;;;2.30;99.90;;;;;;5033150;28;20085;-80
2022/01/20 06:57:14;;;;;;;11.52;1.80;;;2.30;99.90;;;;;;5051388;28;20037;-80
2022/01/20 06:59:40;;;;;;;24.20;3.25;;;2.30;99.90;;;;;;5033426;28;20049;-81
2022/01/20 07:02:06;;;;;;;16.17;2.72;;;2.30;99.90;;;;;;5030185;28;20223;-80
2022/01/20 07:04:32;;;;;;;11.35;1.83;;;2.30;99.90;;;;;;5032470;28;20052;-81
2022/01/20 07:06:58;;;;;;;19.73;3.03;;;2.30;99.90;;;;;;5050743;28;20107;-80
2022/01/20 07:09:24;;;;;;;19.55;2.40;;;2.30;99.90;;;;;;5051398;28;20788;-80
2022/01/20 07:11:50;;;;;;;11.30;2.13;;;3.10;99.90;;;;;;5050653;28;20135;-80
2022/01/20 07:14:16;;;;;;;18.00;1.90;;;2.30;99.90;;;;;;5050911;28;20045;-81
2022/01/20 07:16:41;;;;;;;15.77;2.47;;;2.30;99.90;;;;;;5050726;28;20049;-80
2022/01/20 07:19:07;;;;;;;13.20;2.08;;;2.40;99.90;;;;;;5032883;28;20140;-82
2022/01/20 07:21:33;;;;;;;16.90;2.58;;;2.40;99.90;;;;;;5050446;28;20063;-80
2022/01/20 07:23:59;;;;;;;15.05;2.33;;;2.50;99.90;;;;;;5050652;28;20041;-81
2022/01/20 07:26:24;;;;;;;21.02;2.72;;;2.50;99.90;;;;;;5050605;28;20563;-81
2022/01/20 07:28:50;;;;;;;16.88;3.15;;;2.50;99.90;;;;;;5050327;28;20045;-81
2022/01/20 07:31:20;;;;;;;16.73;2.53;;;2.40;99.90;;;;;;5032430;28;20507;-81
2022/01/20 07:33:46;;;;;;;24.77;2.80;;;2.40;99.90;;;;;;5032762;28;20095;-81
2022/01/20 07:36:22;;;;;;;19.60;2.35;;;2.40;99.90;;;;;;5049209;28;20059;-78
2022/01/20 07:38:47;;;;;;;19.23;3.17;;;2.40;99.90;;;;;;5050286;28;20059;-82
2022/01/20 07:41:13;;;;;;;11.25;2.10;;;2.30;99.90;;;;;;5032859;28;20048;-83
2022/01/20 07:43:40;;;;;;;15.77;2.65;;;2.30;99.90;;;;;;5050934;28;20087;-82
2022/01/20 07:46:06;;;;;;;17.08;2.42;;;2.30;99.90;;;;;;5049182;28;20140;-80
2022/01/20 07:48:32;;;;;;;15.07;2.40;;;2.30;99.90;;;;;;5051070;28;20123;-78
2022/01/20 07:50:57;;;;;;;14.73;1.90;;;2.30;99.90;;;;;;5050438;28;20045;-81
2022/01/20 07:53:23;;;;;;;15.63;2.30;;;2.30;99.90;;;;;;5015616;28;20122;-81
2022/01/20 07:55:52;;;;;;;17.90;2.67;;;2.30;99.90;;;;;;5050788;28;20118;-81
2022/01/20 07:58:18;;;;;;;16.77;2.40;;;2.30;99.90;;;;;;5050554;28;20041;-81
2022/01/20 08:00:43;;;;;;;17.38;2.00;;;2.30;99.90;;;;;;5050286;28;20741;-83
2022/01/20 08:03:09;;;;;;;17.90;2.15;;;2.30;99.90;;;;;;5050324;28;20048;-80
2022/01/20 08:05:35;;;;;;;22.00;3.10;;;2.30;99.90;;;;;;5032397;28;20174;-83
2022/01/20 08:08:00;;;;;;;20.17;2.63;;;2.30;99.90;;;;;;5049932;28;20086;-81
2022/01/20 08:10:26;;;;;;;16.75;2.25;;;2.40;99.90;;;;;;5049861;28;20393;-79
2022/01/20 08:12:52;;;;;;;19.00;2.80;;;2.40;99.90;;;;;;5032342;28;20048;-80
2022/01/20 08:15:18;;;;;;;16.42;2.35;;;2.40;99.90;;;;;;5049983;28;20045;-80
2022/01/20 08:17:44;;;;;;;15.35;2.33;;;2.40;99.90;;;;;;5049787;28;20037;-84
2022/01/20 08:20:11;;;;;;;13.65;2.13;;;2.40;99.90;;;;;;5032383;28;20056;-80
2022/01/20 08:22:36;;;;;;;16.75;2.35;;;2.40;99.90;;;;;;5047447;28;20092;-79
2022/01/20 08:25:05;;;;;;;22.10;2.75;;;2.40;99.90;;;;;;5047665;28;20498;-80
2022/01/20 08:27:31;;;;;;;19.15;3.15;;;2.50;99.90;;;;;;5050220;28;20053;-85
2022/01/20 08:29:57;;;;;;;22.95;3.40;;;2.50;99.90;;;;;;5050353;28;20045;-81
2022/01/20 08:32:23;;;;;;;20.17;3.35;;;2.40;99.90;;;;;;5050348;28;20045;-81
2022/01/20 08:34:48;;;;;;;20.65;3.35;;;2.30;99.90;;;;;;5050797;28;20045;-81
2022/01/20 08:37:14;;;;;;;18.08;2.65;;;2.30;99.90;;;;;;5032695;28;20103;-81
2022/01/20 08:39:40;;;;;;;21.90;2.70;;;2.30;99.90;;;;;;5050416;28;20095;-81
2022/01/20 08:42:06;;;;;;;18.20;2.72;;;2.30;99.90;;;;;;5032865;28;20053;-83
2022/01/20 08:44:32;;;;;;;18.48;2.10;;;2.30;99.90;;;;;;5033094;28;20056;-81
2022/01/20 08:46:58;;;;;;;23.10;2.22;;;2.20;99.90;;;;;;5050874;28;20048;-82
2022/01/20 08:49:25;;;;;;;12.70;1.38;;;2.20;99.90;;;;;;5050253;28;20099;-81
2022/01/20 08:51:51;;;;;;;11.32;2.08;;;2.70;99.90;;;;;;5054606;28;20045;-85
2022/01/20 08:54:17;;;;;;;13.18;1.80;;;2.10;99.90;;;;;;5054047;28;20049;-80
2022/01/20 08:56:43;;;;;;;17.00;2.20;;;2.10;99.90;;;;;;5019463;28;20045;-80
2022/01/20 08:59:10;;;;;;;16.63;2.35;;;2.10;99.90;;;;;;5054168;28;20111;-82
2022/01/20 09:02:05;;;;;;;13.32;2.03;;;2.20;99.90;;;;;;5021134;28;20442;-84
2022/01/20 09:04:30;;;;;;;17.98;2.42;;;2.10;99.90;;;;;;5053955;28;20056;-82
2022/01/20 09:06:56;;;;;;;16.42;2.67;;;1.90;99.90;;;;;;5035994;28;20049;-81
2022/01/20 09:09:25;;;;;;;14.82;2.15;;;2.10;99.90;;;;;;5036095;28;20052;-82
2022/01/20 09:17:52;;;;;;;13.65;2.70;;;2.90;99.90;;;;;;5053824;28;20060;-83
2022/01/20 09:20:18;;;;;;;17.38;2.55;;;3.00;99.90;;;;;;5053853;28;20574;-81
2022/01/20 09:22:56;;;;;;;18.77;3.15;;;2.50;99.90;;;;;;5053531;28;20068;-86
2022/01/20 09:25:31;;;;;;;13.60;2.75;;;2.50;99.90;;;;;;5053716;28;20044;-83
2022/01/20 09:28:00;;;;;;;12.90;2.00;;;2.40;99.90;;;;;;5053746;28;20106;-82
2022/01/20 09:30:28;;;;;;;9.82;1.70;;;2.30;99.90;;;;;;5049884;28;20052;-82
2022/01/20 09:33:01;;;;;;;16.33;2.50;;;2.20;99.90;;;;;;5053723;28;20040;-80
2022/01/20 09:35:30;;;;;;;9.52;2.30;;;2.20;99.90;;;;;;5053326;28;20052;-82
2022/01/20 09:37:58;;;;;;;14.23;2.20;;;2.10;99.90;;;;;;5035527;28;20076;-85
2022/01/20 09:40:25;;;;;;;15.18;1.88;;;2.10;99.90;;;;;;5053010;28;20040;-80
2022/01/20 09:42:50;;;;;;;12.77;1.77;;;2.10;99.90;;;;;;5052569;28;20456;-85
2022/01/20 09:45:16;;;;;;;20.60;2.42;;;2.10;99.90;;;;;;5055601;28;20131;-83
2022/01/20 09:47:44;;;;;;;13.63;2.05;;;2.10;99.90;;;;;;5035099;28;20455;-81
2022/01/20 09:50:15;;;;;;;13.70;1.70;;;2.20;99.90;;;;;;5053472;28;20538;-81
2022/01/20 09:52:41;;;;;;;12.80;2.38;;;2.40;99.90;;;;;;5048103;28;20517;-80
2022/01/20 09:55:08;;;;;;;11.70;1.77;;;3.20;99.90;;;;;;5052643;28;20041;-81
2022/01/20 09:57:34;;;;;;;16.73;2.30;;;2.70;99.90;;;;;;5052749;28;20535;-81
2022/01/20 10:00:00;;;;;;;13.15;1.85;;;2.70;99.90;;;;;;5052129;28;20044;-81
2022/01/20 10:02:25;;;;;;;15.07;2.25;;;2.50;99.90;;;;;;5034916;28;20037;-81
2022/01/20 10:04:53;;;;;;;18.75;2.58;;;2.50;99.90;;;;;;5035576;28;20107;-81
2022/01/20 10:07:19;;;;;;;19.10;2.55;;;2.40;99.90;;;;;;5053108;28;20400;-81
2022/01/20 10:09:49;;;;;;;16.85;2.50;;;2.30;99.90;;;;;;5049940;28;20112;-85
2022/01/20 10:12:22;;;;;;;19.90;2.13;;;2.30;99.90;;;;;;5050840;28;20049;-82
2022/01/20 10:14:55;;;;;;;19.25;2.28;;;2.80;99.90;;;;;;5025457;28;20435;-82
2022/01/20 10:17:29;;;;;;;7.88;1.23;;;2.90;99.90;;;;;;5016954;28;20044;-85
2022/01/20 10:20:05;;;;;;;12.80;1.70;;;2.10;99.90;;;;;;5016420;28;20562;-81
2022/01/20 10:22:33;;;;;;;16.42;1.52;;;2.10;99.90;;;;;;5032471;28;20060;-82
2022/01/20 10:25:21;;;;;;;17.30;2.50;;;2.20;99.90;;;;;;5052219;28;20049;-81
2022/01/20 10:27:55;;;;;;;10.73;2.00;;;2.20;99.90;;;;;;5013980;28;20040;-81
2022/01/20 10:30:27;;;;;;;10.05;2.15;;;2.20;99.90;;;;;;5050696;28;20053;-81
2022/01/20 10:32:57;;;;;;;10.90;2.30;;;2.30;99.90;;;;;;5051554;28;20410;-81
2022/01/20 10:35:26;;;;;;;12.88;2.13;;;2.30;99.90;;;;;;5051223;28;20208;-81
2022/01/20 10:38:09;;;;;;;15.50;2.20;;;2.40;99.90;;;;;;5051792;28;20045;-80
2022/01/20 10:40:46;;;;;;;17.65;1.98;;;2.40;99.90;;;;;;5046324;28;20784;-81
2022/01/20 10:43:21;;;;;;;13.35;1.70;;;2.50;99.90;;;;;;5052950;28;20045;-81
2022/01/20 10:45:46;;;;;;;11.98;1.52;;;2.50;99.90;;;;;;5033355;28;20065;-80
2022/01/20 10:48:18;;;;;;;16.35;2.72;;;2.50;99.90;;;;;;5033424;28;20047;-81
2022/01/20 10:50:43;;;;;;;16.73;2.08;;;2.70;99.90;;;;;;5051521;28;20056;-79
2022/01/20 10:53:22;;;;;;;18.48;3.08;;;3.30;99.90;;;;;;5051889;28;20041;-81
2022/01/20 10:55:48;;;;;;;19.55;2.25;;;3.00;99.90;;;;;;5051480;28;20033;-83
2022/01/20 11:01:01;;;;;;;19.70;2.40;;;3.90;99.90;;;;;;5051823;28;20044;-83
2022/01/20 11:03:35;;;;;;;15.90;2.42;;;3.30;99.90;;;;;;5033583;28;20067;-83
2022/01/20 11:06:01;;;;;;;14.13;2.17;;;4.00;99.90;;;;;;5051806;28;20091;-77
2022/01/20 11:08:29;;;;;;;17.95;2.10;;;3.40;99.90;;;;;;5051593;28;20068;-78
2022/01/20 11:10:57;;;;;;;14.50;2.40;;;3.50;99.90;;;;;;5050600;28;20052;-80
2022/01/20 11:13:37;;;;;;;23.73;2.65;;;3.50;99.90;;;;;;5051404;28;20057;-79
2022/01/20 11:16:03;;;;;;;9.82;2.30;;;3.60;99.90;;;;;;5033410;28;20048;-81
2022/01/20 11:18:29;;;;;;;14.80;2.33;;;3.70;99.90;;;;;;5015836;28;20057;-81
2022/01/20 11:20:56;;;;;;;16.02;2.22;;;4.80;99.90;;;;;;5052199;28;20075;-81
2022/01/20 11:23:22;;;;;;;19.80;2.03;;;4.20;99.90;;;;;;5051167;28;20076;-83
2022/01/20 11:25:48;;;;;;;12.65;1.55;;;4.30;99.90;;;;;;5033250;28;20484;-82
2022/01/20 11:28:22;;;;;;;12.98;1.55;;;4.50;99.90;;;;;;5017118;28;20484;-79
2022/01/20 11:30:57;;;;;;;18.20;2.63;;;5.10;99.90;;;;;;5032284;28;20120;-80
2022/01/20 11:33:33;;;;;;;17.45;2.67;;;4.70;99.90;;;;;;5050597;28;20674;-79
2022/01/20 11:35:59;;;;;;;15.20;2.00;;;4.60;99.90;;;;;;5016855;28;20049;-83
2022/01/20 11:38:39;;;;;;;14.93;2.10;;;4.50;99.90;;;;;;5033536;28;20396;-81
2022/01/20 11:41:05;;;;;;;16.05;2.17;;;4.30;99.90;;;;;;5032790;28;20044;-81
2022/01/20 11:43:38;;;;;;;8.70;1.90;;;4.10;99.90;;;;;;5051070;28;20048;-79
2022/01/20 11:46:10;;;;;;;12.13;1.75;;;4.00;99.90;;;;;;5051295;28;20408;-84
2022/01/20 11:48:35;;;;;;;19.50;2.15;;;4.00;99.90;;;;;;5050327;28;20567;-81
2022/01/20 11:51:05;;;;;;;19.63;2.65;;;4.30;99.90;;;;;;5032425;28;20065;-80
2022/01/20 11:53:41;;;;;;;18.40;2.10;;;4.20;99.90;;;;;;5051601;28;20128;-84
2022/01/20 11:56:10;;;;;;;9.75;1.95;;;3.80;99.90;;;;;;5033378;28;20063;-80
2022/01/20 11:58:36;;;;;;;17.45;2.25;;;5.20;99.90;;;;;;5015879;28;20148;-81
2022/01/20 12:01:06;;;;;;;9.88;1.70;;;5.10;99.90;;;;;;5050914;28;20132;-83
2022/01/20 12:03:33;;;;;;;16.60;2.60;;;5.10;99.90;;;;;;5049505;28;20094;-82
2022/01/20 12:06:14;;;;;;;13.82;2.30;;;4.90;99.90;;;;;;5050646;28;20564;-80
2022/01/20 12:09:01;;;;;;;14.00;2.22;;;5.70;99.90;;;;;;5050477;28;20175;-81
2022/01/20 12:11:35;;;;;;;11.35;2.55;;;4.90;99.90;;;;;;5049819;28;20067;-82
2022/01/20 12:14:01;;;;;;;19.67;2.10;;;5.10;99.90;;;;;;5050558;28;20815;-79
2022/01/20 12:16:27;;;;;;;18.48;2.92;;;5.20;99.90;;;;;;5050746;28;20052;-81
2022/01/20 12:18:56;;;;;;;12.63;2.47;;;5.30;99.90;;;;;;5031729;28;20083;-80
2022/01/20 12:21:23;;;;;;;24.85;2.60;;;5.30;99.90;;;;;;5032485;28;20098;-82
2022/01/20 12:23:50;;;;;;;12.43;2.60;;;5.90;99.90;;;;;;5036224;28;20441;-81
2022/01/20 12:26:19;;;;;;;11.45;2.20;;;6.20;99.90;;;;;;5053701;28;20059;-81
2022/01/20 12:28:58;;;;;;;24.88;2.05;;;5.50;99.90;;;;;;5054706;28;20048;-82
2022/01/20 12:31:24;;;;;;;18.23;2.65;;;5.40;99.90;;;;;;5053929;28;20439;-80
2022/01/20 12:33:52;;;;;;;19.58;3.03;;;5.60;99.90;;;;;;5053962;28;20067;-81
2022/01/20 12:36:18;;;;;;;19.63;2.13;;;6.10;99.90;;;;;;5053265;28;20044;-80
2022/01/20 12:38:48;;;;;;;14.32;2.47;;;5.70;99.90;;;;;;5053924;28;20128;-79
2022/01/20 12:41:17;;;;;;;18.17;2.47;;;6.20;99.90;;;;;;5053369;28;20049;-82
2022/01/20 12:43:55;;;;;;;12.55;1.75;;;6.00;99.90;;;;;;5053201;28;20055;-80
2022/01/20 12:46:24;;;;;;;11.30;2.65;;;5.50;99.90;;;;;;5053704;28;20076;-81
2022/01/20 12:48:59;;;;;;;15.13;2.00;;;5.80;99.90;;;;;;5052574;28;20040;-81
2022/01/20 12:51:41;;;;;;;23.52;2.42;;;5.40;99.90;;;;;;5035521;28;20045;-82
2022/01/20 12:54:11;;;;;;;21.98;2.50;;;5.20;99.90;;;;;;5053889;28;20136;-80
2022/01/20 12:56:44;;;;;;;17.70;2.05;;;4.90;99.90;;;;;;5053310;28;20156;-82
2022/01/20 12:59:10;;;;;;;12.55;1.83;;;4.70;99.90;;;;;;5031738;28;20052;-84
2022/01/20 13:01:44;;;;;;;12.63;1.30;;;4.50;99.90;;;;;;5035526;28;20511;-81
2022/01/20 13:04:13;;;;;;;11.98;1.92;;;4.50;99.90;;;;;;5035912;28;20057;-84
2022/01/20 13:06:54;;;;;;;13.60;1.67;;;4.80;99.90;;;;;;5035124;28;20053;-87
2022/01/20 13:09:22;;;;;;;12.10;2.00;;;4.90;99.90;;;;;;5035368;28;20454;-79
2022/01/20 13:12:17;;;;;;;20.30;2.50;;;4.90;99.90;;;;;;5035255;28;20120;-78
2022/01/20 13:14:49;;;;;;;20.95;1.83;;;5.80;99.90;;;;;;5035688;28;20061;-84
2022/01/20 13:17:30;;;;;;;10.75;1.60;;;5.10;99.90;;;;;;5055122;28;20041;-82
2022/01/20 13:19:58;;;;;;;10.85;1.35;;;5.00;99.90;;;;;;5018401;28;20049;-82
2022/01/20 13:22:37;;;;;;;11.60;2.35;;;5.60;99.90;;;;;;5037794;28;20128;-81
2022/01/20 13:25:08;;;;;;;16.23;1.90;;;5.00;99.90;;;;;;5055694;28;20044;-83
2022/01/20 13:27:36;;;;;;;13.95;1.85;;;5.20;99.90;;;;;;5053729;28;20045;-86
2022/01/20 13:30:33;;;;;;;19.15;2.50;;;5.70;99.90;;;;;;5051626;28;20045;-89
2022/01/20 13:32:59;;;;;;;20.73;2.95;;;5.40;99.90;;;;;;5052513;28;20040;-79
2022/01/20 13:35:36;;;;;;;18.10;2.05;;;5.70;99.90;;;;;;5035384;28;20057;-79
2022/01/20 13:38:04;;;;;;;10.93;1.92;;;6.30;99.90;;;;;;5018663;28;20072;-91
2022/01/20 13:40:30;;;;;;;14.35;2.30;;;5.30;99.90;;;;;;5052780;28;20480;-83
2022/01/20 13:45:44;;;;;;;11.40;2.15;;;4.60;99.90;;;;;;5035289;28;20068;-86
2022/01/20 13:48:13;;;;;;;8.40;1.50;;;4.50;99.90;;;;;;5004122;28;20390;-83
2022/01/20 13:50:44;;;;;;;13.30;1.63;;;5.50;99.90;;;;;;5041444;28;20095;-80
2022/01/20 13:53:31;;;;;;;16.20;1.88;;;4.60;99.90;;;;;;5012381;28;20073;-85
2022/01/20 13:56:03;;;;;;;15.40;1.77;;;4.90;99.90;;;;;;4979953;28;20058;-79
2022/01/20 13:58:33;;;;;;;14.15;1.65;;;5.00;99.90;;;;;;4978599;28;20058;-86
2022/01/20 14:01:12;;;;;;;10.63;1.83;;;4.80;99.90;;;;;;4994001;28;20124;-80
2022/01/20 14:03:40;;;;;;;10.50;1.77;;;4.70;99.90;;;;;;4997285;28;20054;-80
2022/01/20 14:09:42;;;;;;;7.05;1.25;;;3.50;99.90;;;;;;5018839;28;20053;-84
2022/01/20 14:12:12;;;;;;;11.07;1.50;;;3.60;99.90;;;;;;5049820;28;20044;-84
2022/01/20 14:14:40;;;;;;;8.02;1.30;;;4.30;99.90;;;;;;5054945;28;20123;-83